KCOF

Patrick AFB Airport

Cocoa Beach, Florida, USA
METAR KCOF 242056Z AUTO 09012KT 10SM CLR 30/24 A3000 RMK AO2 SLP163 T02950243 57015 $
Observed Flight Rules
Sep-24 @ 20:56 UTC (41 minutes ago) Visual Flight Rules
Wind Visibility Clouds
90° at 12 knots 10 miles
  • Clear skies
Temperatures Readings
Current 30°C / 86°F
Dewpoint 24°C / 75°F
Humidity 70%
Altimeter 30" Hg
Pressure 1016.3 hPa
Elevation 3
METAR KCOF 242056Z AUTO 09012KT 10SM CLR 30/24 A3000 RMK AO2 SLP163 T02950243 57015 $
Observed Flight Rules
Sep-24 @ 20:56 UTC
(41 minutes ago)
VFR
Wind Visibility
90° at 12 knots 10 miles
Clouds
  • Clear skies
Temperature Dewpoint
30°C / 86°F 24°C / 75°F
Humidity Altimeter Pressure
70% 30" Hg 1016.3 hPa